createdAt,value
2019-03-21T00:00:51.292Z,5.47
2019-03-21T00:03:22.397Z,7.90
2019-03-21T00:05:53.163Z,7.03
2019-03-21T00:08:23.969Z,5.80
2019-03-21T00:11:29.882Z,5.47
2019-03-21T00:14:07.251Z,5.97
2019-03-21T00:16:36.394Z,5.53
2019-03-21T00:19:07.155Z,5.13
2019-03-21T00:21:37.920Z,5.30
2019-03-21T00:24:26.814Z,5.13
2019-03-21T00:26:57.638Z,5.57
2019-03-21T00:29:28.729Z,5.97
2019-03-21T00:31:59.585Z,6.23
2019-03-21T00:34:30.466Z,5.87
2019-03-21T00:37:01.220Z,6.33
2019-03-21T00:39:33.130Z,6.13
2019-03-21T00:42:04.109Z,6.50
2019-03-21T00:44:34.901Z,6.30
2019-03-21T00:47:05.682Z,6.30
2019-03-21T00:49:36.466Z,6.97
2019-03-21T00:52:07.242Z,6.23
2019-03-21T00:54:38.321Z,6.60
2019-03-21T00:57:09.327Z,7.20
2019-03-21T00:59:40.203Z,7.03
2019-03-21T01:02:11.036Z,5.77
2019-03-21T01:04:41.874Z,6.83
2019-03-21T01:07:12.696Z,6.00
2019-03-21T01:09:43.455Z,5.87
2019-03-21T01:12:14.410Z,6.80
2019-03-21T01:14:45.466Z,7.40
2019-03-21T01:17:16.437Z,7.20
2019-03-21T01:19:47.213Z,8.00
2019-03-21T01:22:17.984Z,7.07
2019-03-21T01:24:48.764Z,6.90
2019-03-21T01:27:19.525Z,6.90
2019-03-21T01:29:50.274Z,7.10
2019-03-21T01:32:21.128Z,7.43
2019-03-21T01:34:51.930Z,7.63
2019-03-21T01:37:22.778Z,6.90
2019-03-21T01:39:53.540Z,8.10
2019-03-21T01:42:24.409Z,6.83
2019-03-21T01:44:55.210Z,6.87
2019-03-21T01:47:26.064Z,6.67
2019-03-21T01:49:56.897Z,6.87
2019-03-21T01:52:27.730Z,6.57
2019-03-21T01:54:58.583Z,7.27
2019-03-21T01:57:29.331Z,7.03
2019-03-21T02:00:00.161Z,7.57
2019-03-21T02:02:31.528Z,7.53
2019-03-21T02:05:02.398Z,7.40
2019-03-21T02:07:33.382Z,7.17
2019-03-21T05:00:44.784Z,6.50
2019-03-21T05:03:15.707Z,6.60
2019-03-21T05:05:46.591Z,6.90
2019-03-21T05:08:17.448Z,8.17
2019-03-21T05:10:48.194Z,6.37
2019-03-21T05:13:19.055Z,7.40
2019-03-21T05:15:49.859Z,7.67
2019-03-21T05:18:24.112Z,7.00
2019-03-21T05:20:54.886Z,7.10
2019-03-21T05:23:25.797Z,7.87
2019-03-21T05:25:56.535Z,7.17
2019-03-21T05:28:27.368Z,7.87
2019-03-21T05:31:01.474Z,7.67
2019-03-21T05:33:32.282Z,7.50
2019-03-21T05:36:03.111Z,7.43
2019-03-21T05:38:34.080Z,7.80
2019-03-21T05:41:04.927Z,7.37
2019-03-21T05:43:39.772Z,7.57
2019-03-21T05:46:10.659Z,6.87
2019-03-21T05:48:41.538Z,7.37
2019-03-21T05:51:12.326Z,7.67
2019-03-21T05:53:43.242Z,8.77
2019-03-21T05:56:14.138Z,8.43
2019-03-21T05:58:44.898Z,9.33
2019-03-21T06:01:15.702Z,10.13
2019-03-21T06:03:49.936Z,10.27
2019-03-21T06:06:37.385Z,9.20
2019-03-21T06:09:09.806Z,8.97
2019-03-21T06:11:42.149Z,8.40
2019-03-21T06:14:12.958Z,8.00
2019-03-21T06:16:43.937Z,8.23
2019-03-21T06:19:41.711Z,9.03
2019-03-21T06:22:43.703Z,8.03
2019-03-21T06:25:37.756Z,7.23
2019-03-21T06:28:08.812Z,7.27
2019-03-21T06:30:39.635Z,7.60
2019-03-21T06:33:10.543Z,7.20
2019-03-21T06:35:41.335Z,7.17
2019-03-21T06:38:12.118Z,6.60
2019-03-21T06:40:43.032Z,6.97
2019-03-21T06:43:13.980Z,7.63
2019-03-21T06:45:48.225Z,7.83
2019-03-21T06:48:17.426Z,8.07
2019-03-21T06:50:48.234Z,8.20
2019-03-21T06:53:19.202Z,7.97
2019-03-21T06:55:50.042Z,8.53
2019-03-21T06:58:20.858Z,8.87
2019-03-21T07:00:51.692Z,8.73
2019-03-21T07:03:22.490Z,10.43
2019-03-21T07:05:53.323Z,8.30
2019-03-21T07:08:24.407Z,7.40
2019-03-21T07:10:58.218Z,7.67
2019-03-21T07:13:28.169Z,8.07
2019-03-21T07:15:59.012Z,7.33
2019-03-21T07:18:29.884Z,7.93
2019-03-21T07:21:01.343Z,7.07
2019-03-21T07:23:32.561Z,7.20
2019-03-21T07:26:03.579Z,6.30
2019-03-21T07:28:34.475Z,6.23
2019-03-21T07:31:07.359Z,7.40
2019-03-21T07:33:38.122Z,6.37
2019-03-21T07:36:09.078Z,7.10
2019-03-21T07:38:39.899Z,7.60
2019-03-21T07:41:10.694Z,7.17
2019-03-21T07:43:41.463Z,7.60
2019-03-21T07:46:12.236Z,7.23
2019-03-21T07:48:43.269Z,6.93
2019-03-21T07:51:14.141Z,7.17
2019-03-21T07:53:44.943Z,6.87
2019-03-21T07:56:15.930Z,7.10
2019-03-21T07:58:46.831Z,6.30
2019-03-21T08:01:17.748Z,5.97
2019-03-21T08:03:48.593Z,7.30
2019-03-21T08:06:19.393Z,6.67
2019-03-21T08:08:50.168Z,7.27
2019-03-21T08:11:20.938Z,7.93
2019-03-21T08:13:51.855Z,7.57
2019-03-21T08:16:22.743Z,7.30
2019-03-21T08:18:53.874Z,7.13
2019-03-21T08:21:24.673Z,7.73
2019-03-21T08:23:55.453Z,6.97
2019-03-21T08:26:26.242Z,7.60
2019-03-21T08:28:57.130Z,7.60
2019-03-21T08:31:28.036Z,7.80
2019-03-21T08:33:58.834Z,7.73
2019-03-21T08:36:29.662Z,7.40
2019-03-21T08:39:00.512Z,7.03
2019-03-21T08:41:31.336Z,7.83
2019-03-21T08:44:02.155Z,6.90
2019-03-21T08:46:33.098Z,7.77
2019-03-21T08:49:03.955Z,7.33
2019-03-21T08:51:34.874Z,6.90
2019-03-21T08:54:05.878Z,7.30
2019-03-21T08:56:36.884Z,6.80
2019-03-21T08:59:07.885Z,6.73
2019-03-21T09:01:38.687Z,7.10
2019-03-21T09:04:09.601Z,7.17
2019-03-21T09:06:43.627Z,6.83
2019-03-21T09:09:14.378Z,6.93
2019-03-21T09:11:45.191Z,6.37
2019-03-21T09:14:15.956Z,6.53
2019-03-21T09:16:46.852Z,7.10
2019-03-21T09:19:17.868Z,6.53
2019-03-21T09:21:48.868Z,7.10
2019-03-21T09:24:19.738Z,7.70
2019-03-21T09:26:51.618Z,7.03
2019-03-21T09:29:22.638Z,7.10
2019-03-21T09:31:53.883Z,8.50
2019-03-21T09:34:24.757Z,7.00
2019-03-21T09:36:55.795Z,6.73
2019-03-21T09:39:26.683Z,7.33
2019-03-21T09:41:57.746Z,7.17
2019-03-21T09:44:29.232Z,6.33
2019-03-21T09:47:00.162Z,6.03
2019-03-21T09:49:31.083Z,5.73
2019-03-21T09:52:01.975Z,6.30
2019-03-21T09:54:32.794Z,5.60
2019-03-21T09:57:03.918Z,6.80
2019-03-21T09:59:34.717Z,5.53
2019-03-21T10:02:05.547Z,5.17
2019-03-21T10:04:36.478Z,5.30
2019-03-21T10:07:07.294Z,5.87
2019-03-21T10:09:38.247Z,5.40
2019-03-21T10:12:09.440Z,5.90
2019-03-21T10:14:41.421Z,6.17
2019-03-21T10:17:12.323Z,5.53
2019-03-21T10:19:43.215Z,5.30
2019-03-21T10:22:14.379Z,5.33
2019-03-21T10:24:45.480Z,4.70
2019-03-21T10:27:16.576Z,4.30
2019-03-21T10:29:47.561Z,4.33
2019-03-21T10:32:18.382Z,3.50
2019-03-21T10:34:49.156Z,4.07
2019-03-21T10:37:20.001Z,4.10
2019-03-21T10:39:50.883Z,4.30
2019-03-21T10:42:21.865Z,4.83
2019-03-21T10:44:52.877Z,4.23
2019-03-21T10:47:23.713Z,3.93
2019-03-21T10:49:54.498Z,4.50
2019-03-21T10:52:25.337Z,3.70
2019-03-21T10:54:56.095Z,4.23
2019-03-21T10:57:26.851Z,3.90
2019-03-21T10:59:57.719Z,4.90
2019-03-21T11:02:28.526Z,4.50
2019-03-21T11:04:59.297Z,4.73
2019-03-21T11:07:30.119Z,5.40
2019-03-21T11:10:01.225Z,5.77
2019-03-21T11:12:32.498Z,5.77
2019-03-21T11:15:03.319Z,5.90
2019-03-21T11:17:34.407Z,48.83
2019-03-21T11:20:05.487Z,24.23
2019-03-21T11:22:36.311Z,11.07
2019-03-21T11:25:07.238Z,7.30
2019-03-21T11:27:38.250Z,7.87
2019-03-21T11:30:15.972Z,6.97
2019-03-21T11:32:41.963Z,14.77
2019-03-21T11:35:12.791Z,24.83
2019-03-21T11:37:43.813Z,23.60
2019-03-21T11:40:14.647Z,12.13
2019-03-21T11:42:45.504Z,11.63
2019-03-21T11:45:16.546Z,14.10
2019-03-21T11:47:47.374Z,8.07
2019-03-21T11:50:18.432Z,8.10
2019-03-21T11:52:49.374Z,5.70
2019-03-21T11:55:20.376Z,7.50
2019-03-21T11:57:51.370Z,8.07
2019-03-21T12:00:22.142Z,5.17
2019-03-21T12:02:53.017Z,5.97
2019-03-21T12:05:24.059Z,6.27
2019-03-21T12:07:54.867Z,5.47
2019-03-21T12:10:25.946Z,5.03
2019-03-21T12:12:56.890Z,4.73
2019-03-21T12:15:27.799Z,4.90
2019-03-21T12:17:58.668Z,6.20
2019-03-21T12:20:36.117Z,5.13
2019-03-21T12:23:07.091Z,5.67
2019-03-21T12:25:37.955Z,5.47
2019-03-21T12:28:09.029Z,5.03
2019-03-21T12:30:43.467Z,4.90
2019-03-21T12:33:14.644Z,4.70
2019-03-21T12:35:45.505Z,4.60
2019-03-21T12:38:16.322Z,5.10
2019-03-21T12:40:47.111Z,4.90
2019-03-21T12:43:17.846Z,4.90
2019-03-21T12:45:48.719Z,5.00
2019-03-21T12:48:19.738Z,5.30
2019-03-21T12:50:50.685Z,5.00
2019-03-21T12:53:21.566Z,4.60
2019-03-21T12:55:52.439Z,4.23
2019-03-21T12:58:23.232Z,4.97
2019-03-21T13:00:54.161Z,4.43
2019-03-21T13:03:24.993Z,4.30
2019-03-21T13:05:55.896Z,3.70
2019-03-21T13:08:33.628Z,4.47
2019-03-21T13:11:00.890Z,3.80
2019-03-21T13:13:32.037Z,3.73
2019-03-21T13:16:02.866Z,4.30
2019-03-21T13:18:33.634Z,4.67
2019-03-21T13:21:04.415Z,4.60
2019-03-21T13:23:35.239Z,5.10
2019-03-21T13:26:06.183Z,5.03
2019-03-21T13:28:37.111Z,4.60
2019-03-21T13:31:07.972Z,3.63
2019-03-21T13:33:38.902Z,6.80
2019-03-21T13:36:09.963Z,34.80
2019-03-21T13:38:40.779Z,43.77
2019-03-21T13:41:12.751Z,22.67
2019-03-21T13:43:43.673Z,17.13
2019-03-21T13:46:14.484Z,36.77
2019-03-21T13:48:45.398Z,74.33
2019-03-21T13:51:16.435Z,23.50
2019-03-21T13:53:47.357Z,12.40
2019-03-21T13:56:18.414Z,19.90
2019-03-21T13:58:50.758Z,14.40
2019-03-21T14:01:21.702Z,12.40
2019-03-21T14:03:52.618Z,10.30
2019-03-21T14:06:23.601Z,7.17
2019-03-21T14:08:54.430Z,6.03
2019-03-21T14:11:25.376Z,8.50
2019-03-21T14:13:56.323Z,7.47
2019-03-21T14:16:27.415Z,7.33
2019-03-21T14:18:58.190Z,5.70
2019-03-21T14:21:29.139Z,6.00
2019-03-21T14:23:59.921Z,6.60
2019-03-21T14:26:30.882Z,4.73
2019-03-21T14:29:12.236Z,4.73
2019-03-21T14:31:34.225Z,4.80
2019-03-21T14:34:05.123Z,3.50
2019-03-21T14:36:36.257Z,4.63
2019-03-21T14:39:08.043Z,4.70
2019-03-21T14:41:38.937Z,4.13
2019-03-21T14:44:12.877Z,5.30
2019-03-21T14:46:43.741Z,3.60
2019-03-21T14:49:14.594Z,3.93
2019-03-21T14:51:45.637Z,3.77
2019-03-21T14:54:16.595Z,4.28
2019-03-21T14:56:47.654Z,3.10
2019-03-21T14:59:18.286Z,9.13
2019-03-21T15:01:49.346Z,10.47
2019-03-21T15:04:20.151Z,3.30
2019-03-21T15:06:51.110Z,4.30
2019-03-21T15:09:21.912Z,2.85
2019-03-21T15:11:52.935Z,3.10
2019-03-21T15:14:23.747Z,2.93
2019-03-21T15:16:54.596Z,2.30
2019-03-21T15:19:25.346Z,3.50
2019-03-21T15:21:56.194Z,3.37
2019-03-21T15:24:27.054Z,3.13
2019-03-21T15:26:57.794Z,4.27
2019-03-21T15:29:28.592Z,4.43
2019-03-21T15:31:59.390Z,2.80
2019-03-21T15:34:30.151Z,3.83
2019-03-21T15:37:00.884Z,3.37
2019-03-21T15:39:31.632Z,4.00
2019-03-21T15:42:02.378Z,3.10
2019-03-21T15:44:33.162Z,3.40
2019-03-21T15:47:04.009Z,2.90
2019-03-21T15:49:35.662Z,4.43
2019-03-21T15:52:06.418Z,3.93
2019-03-21T15:54:37.208Z,4.13
2019-03-21T15:57:08.154Z,5.17
2019-03-21T15:59:39.280Z,4.90
2019-03-21T16:02:11.358Z,4.00
2019-03-21T16:04:42.290Z,3.27
2019-03-21T16:07:13.239Z,4.73
2019-03-21T16:09:44.162Z,3.83
2019-03-21T16:12:15.019Z,3.67
2019-03-21T16:14:46.041Z,7.27
2019-03-21T16:17:17.019Z,14.60
2019-03-21T16:19:48.033Z,37.27
2019-03-21T16:22:18.946Z,37.23
2019-03-21T16:24:50.044Z,36.53
2019-03-21T16:27:20.933Z,43.27
2019-03-21T16:29:51.832Z,41.00
2019-03-21T16:32:22.836Z,38.60
2019-03-21T16:34:53.629Z,25.23
2019-03-21T16:37:24.666Z,12.53
2019-03-21T16:39:55.857Z,25.77
2019-03-21T16:42:26.775Z,23.83
2019-03-21T16:44:57.727Z,18.30
2019-03-21T16:47:28.654Z,16.50
2019-03-21T16:49:59.952Z,11.63
2019-03-21T16:52:30.796Z,4.10
2019-03-21T16:55:02.608Z,3.63
2019-03-21T16:57:33.926Z,3.53
2019-03-21T17:00:09.722Z,3.60
2019-03-21T17:02:40.719Z,3.77
2019-03-21T17:05:12.120Z,3.27
2019-03-21T17:07:43.156Z,4.10
2019-03-21T17:10:14.367Z,3.67
2019-03-21T17:12:45.647Z,3.83
2019-03-21T17:15:16.524Z,3.00
2019-03-21T17:17:47.293Z,3.13
2019-03-21T17:20:18.134Z,3.00
2019-03-21T17:22:48.963Z,4.60
2019-03-21T17:25:19.865Z,4.77
2019-03-21T17:27:50.627Z,4.03
2019-03-21T17:30:21.411Z,3.40
2019-03-21T17:32:52.172Z,3.70
2019-03-21T17:35:23.019Z,4.10
2019-03-21T17:37:53.871Z,3.87
2019-03-21T17:40:24.772Z,4.47
2019-03-21T17:42:55.647Z,3.50
2019-03-21T17:45:26.567Z,4.35
2019-03-21T17:47:57.598Z,4.93
2019-03-21T17:50:28.418Z,4.20
2019-03-21T17:52:59.294Z,4.72
2019-03-21T17:55:30.249Z,4.67
2019-03-21T17:58:00.242Z,4.67
2019-03-21T18:00:30.518Z,3.60
2019-03-21T18:03:00.584Z,4.00
2019-03-21T18:05:30.472Z,6.43
2019-03-21T18:08:00.294Z,9.33
2019-03-21T18:10:30.666Z,6.07
2019-03-21T18:13:00.630Z,5.33
2019-03-21T18:15:30.665Z,7.37
2019-03-21T18:18:00.781Z,6.47
2019-03-21T18:20:30.721Z,4.97
2019-03-21T18:23:00.637Z,5.17
2019-03-21T18:25:30.572Z,4.03
2019-03-21T18:28:00.353Z,5.10
2019-03-21T18:30:31.447Z,5.57
2019-03-21T18:33:01.305Z,5.13
2019-03-21T18:35:31.271Z,5.17
2019-03-21T18:38:02.362Z,5.20
2019-03-21T18:40:33.330Z,4.50
2019-03-21T18:43:04.356Z,4.00
2019-03-21T18:45:35.471Z,4.40
2019-03-21T18:48:06.357Z,4.03
2019-03-21T18:50:37.229Z,6.70
2019-03-21T18:53:08.121Z,5.60
2019-03-21T18:55:38.990Z,5.33
2019-03-21T18:58:09.827Z,5.47
2019-03-21T19:00:42.962Z,4.60
2019-03-21T19:03:13.838Z,5.03
2019-03-21T19:05:44.771Z,5.50
2019-03-21T19:08:15.599Z,4.97
2019-03-21T19:10:46.620Z,5.90
2019-03-21T19:13:17.905Z,4.10
2019-03-21T19:15:48.695Z,5.33
2019-03-21T19:18:19.694Z,5.80
2019-03-21T19:20:50.663Z,4.97
2019-03-21T19:23:21.780Z,4.77
2019-03-21T19:25:52.881Z,5.60
2019-03-21T19:28:23.734Z,4.23
2019-03-21T19:30:54.689Z,5.50
2019-03-21T19:33:25.529Z,4.87
2019-03-21T19:35:56.406Z,5.10
2019-03-21T19:38:27.495Z,5.40
2019-03-21T19:40:58.499Z,5.23
2019-03-21T19:43:29.369Z,5.60
2019-03-21T19:46:00.357Z,6.27
2019-03-21T19:48:31.327Z,5.93
2019-03-21T19:51:02.354Z,7.97
2019-03-21T19:53:33.333Z,6.40
2019-03-21T19:56:08.766Z,7.33
2019-03-21T19:58:37.671Z,6.40
2019-03-21T20:01:08.620Z,6.60
2019-03-21T20:03:39.556Z,6.67
2019-03-21T20:06:10.377Z,7.60
2019-03-21T20:08:41.188Z,6.80
2019-03-21T20:11:12.260Z,7.33
2019-03-21T20:13:43.095Z,7.50
2019-03-21T20:16:13.955Z,6.87
2019-03-21T20:18:44.847Z,6.83
2019-03-21T20:21:15.903Z,6.67
2019-03-21T20:23:46.771Z,6.92
2019-03-21T20:26:17.719Z,7.00
2019-03-21T20:28:48.634Z,6.43
2019-03-21T20:31:19.683Z,7.13
2019-03-21T20:33:50.555Z,6.37
2019-03-21T20:36:21.887Z,6.40
2019-03-21T20:38:52.766Z,6.20
2019-03-21T20:41:23.576Z,8.03
2019-03-21T20:43:54.427Z,8.43
2019-03-21T20:46:25.311Z,7.30
2019-03-21T20:48:54.398Z,7.90
2019-03-21T20:51:25.194Z,5.47
2019-03-21T20:53:56.158Z,6.43
2019-03-21T20:56:27.257Z,7.27
2019-03-21T20:58:58.099Z,6.13
2019-03-21T21:01:28.956Z,7.07
2019-03-21T21:03:59.765Z,7.03
2019-03-21T21:06:31.863Z,7.30
2019-03-21T21:09:03.238Z,8.03
2019-03-21T21:11:35.175Z,7.63
2019-03-21T21:14:06.248Z,5.63
2019-03-21T21:16:37.086Z,5.90
2019-03-21T21:19:07.887Z,6.27
2019-03-21T21:21:38.799Z,6.43
2019-03-21T21:24:09.615Z,6.07
2019-03-21T21:26:40.585Z,6.07
2019-03-21T21:29:11.391Z,6.23
2019-03-21T21:31:42.288Z,8.40
2019-03-21T21:34:13.267Z,6.93
2019-03-21T21:36:44.215Z,6.43
2019-03-21T21:39:16.194Z,7.07
2019-03-21T21:41:47.123Z,6.63
2019-03-21T21:44:17.907Z,6.57
2019-03-21T21:46:48.771Z,5.90
2019-03-21T21:49:19.753Z,6.37
2019-03-21T21:51:50.900Z,6.53
2019-03-21T21:54:21.955Z,6.77
2019-03-21T21:56:52.932Z,6.73
2019-03-21T21:59:23.829Z,6.23
2019-03-21T22:01:54.632Z,7.20
2019-03-21T22:04:25.438Z,6.63
2019-03-21T22:06:56.288Z,6.60
2019-03-21T22:09:27.187Z,6.83
2019-03-21T22:11:58.095Z,6.90
2019-03-21T22:14:28.947Z,7.47
2019-03-21T22:17:00.009Z,7.43
2019-03-21T22:19:30.794Z,6.77
2019-03-21T22:22:01.614Z,6.63
2019-03-21T22:24:32.470Z,6.87
2019-03-21T22:27:03.290Z,7.27
2019-03-21T22:29:34.655Z,6.83
2019-03-21T22:32:05.462Z,7.60
2019-03-21T22:34:36.525Z,6.07
2019-03-21T22:37:09.576Z,6.03
2019-03-21T22:39:40.396Z,6.40
2019-03-21T22:42:11.164Z,7.87
2019-03-21T22:44:42.470Z,7.30
2019-03-21T22:47:13.384Z,7.47
2019-03-21T22:49:44.541Z,6.70
2019-03-21T22:52:15.321Z,6.73
2019-03-21T22:54:46.188Z,6.40
2019-03-21T22:57:17.053Z,7.20
2019-03-21T22:59:48.245Z,6.47
2019-03-21T23:02:19.108Z,7.00
2019-03-21T23:04:49.965Z,6.87
2019-03-21T23:07:23.555Z,7.27
2019-03-21T23:09:54.548Z,6.17
2019-03-21T23:12:24.578Z,5.83
2019-03-21T23:14:54.552Z,7.43
2019-03-21T23:17:24.450Z,8.63
2019-03-21T23:19:54.347Z,7.23
2019-03-21T23:22:24.218Z,6.40
2019-03-21T23:24:54.014Z,7.07
2019-03-21T23:27:24.133Z,6.43
2019-03-21T23:29:54.275Z,7.27
2019-03-21T23:32:24.306Z,7.17
2019-03-21T23:34:54.157Z,7.80
2019-03-21T23:37:23.943Z,7.37
2019-03-21T23:39:53.782Z,7.73
2019-03-21T23:42:23.714Z,7.30
2019-03-21T23:44:53.542Z,8.00
2019-03-21T23:47:23.516Z,9.47
2019-03-21T23:49:53.379Z,7.43
2019-03-21T23:52:23.544Z,8.03
2019-03-21T23:54:53.521Z,7.77
2019-03-21T23:57:23.402Z,7.33
2019-03-21T23:59:53.220Z,9.70
